Current | Forecast
Updated: 12:00 PM EEST on September 23, 2017
Observed at L'viv, Ukraine
Temperature 59°F
Humidity 82%
Dew Point 54°F
Wind ESE at 11 mph
Pressure 29.98 in (Rising)
Conditions Mostly Cloudy
Visibility 6.2 miles
UV 3 out of 16
Clouds Mostly Cloudy (BKN) : 1100 ft
Mostly Cloudy (BKN) : 3000 ft
Yesterday's Maximum 55°F
Yesterday's Minimum 52°F approx.
Yesterday's Heating Degree Days 11 approx.
Sunrise7:08 AM EEST
Sunset7:16 PM EEST
Moon Rise10:22 AM EEST
Moon Set9:04 PM EEST
Moon PhaseMoon Phase
Waxing Crescent
Raw METARMETAR UKLL 230900Z 11005MPS 9999 BKN011 BKN030CB 15/12 Q1015 R13/290060 NOSIG


Monday
. High: 62° F.
Tuesday
. High: 60° F.
Wednesday
. High: 75° F.
Thursday
. High: 75° F.
Friday
. High: 68° F.
Saturday
. High: 68° F.
Sunday
. High: 69° F.
Monday
. High: 77° F.

Units: English | Metric

Find the Weather for any City, State or Zipcode, or Country:

U.S. State List | Severe Weather | Tropical Storms | Ski Conditions
United States | Canada | Central America | South America | Asia | Europe | Australia | Africa | Islands

Weather Underground

© Copyright 2017
The Weather Company, LLC